sensor_id;sensor_type;location;lat;lon;timestamp;P1;durP1;ratioP1;P2;durP2;ratioP2
22922;SDS011;11627;51.322;22.816;2023-03-21T00:00:54;94.55;;;56.05;;
22922;SDS011;11627;51.322;22.816;2023-03-21T00:03:22;103.00;;;57.90;;
22922;SDS011;11627;51.322;22.816;2023-03-21T00:05:50;100.25;;;55.95;;
22922;SDS011;11627;51.322;22.816;2023-03-21T00:08:22;107.13;;;58.17;;
22922;SDS011;11627;51.322;22.816;2023-03-21T00:10:57;101.47;;;55.08;;
22922;SDS011;11627;51.322;22.816;2023-03-21T00:13:24;98.05;;;57.50;;
22922;SDS011;11627;51.322;22.816;2023-03-21T00:15:53;103.78;;;59.80;;
22922;SDS011;11627;51.322;22.816;2023-03-21T00:18:20;107.50;;;58.35;;
22922;SDS011;11627;51.322;22.816;2023-03-21T00:23:29;106.82;;;59.72;;
22922;SDS011;11627;51.322;22.816;2023-03-21T00:25:57;104.10;;;60.13;;
22922;SDS011;11627;51.322;22.816;2023-03-21T00:28:26;99.18;;;56.58;;
22922;SDS011;11627;51.322;22.816;2023-03-21T00:30:58;99.25;;;58.25;;
22922;SDS011;11627;51.322;22.816;2023-03-21T00:33:27;105.65;;;59.47;;
22922;SDS011;11627;51.322;22.816;2023-03-21T00:35:54;98.93;;;58.15;;
22922;SDS011;11627;51.322;22.816;2023-03-21T00:38:22;104.88;;;60.50;;
22922;SDS011;11627;51.322;22.816;2023-03-21T00:40:50;101.10;;;57.92;;
22922;SDS011;11627;51.322;22.816;2023-03-21T00:43:18;103.03;;;59.28;;
22922;SDS011;11627;51.322;22.816;2023-03-21T00:45:47;101.63;;;59.45;;
22922;SDS011;11627;51.322;22.816;2023-03-21T00:48:14;100.55;;;57.05;;
22922;SDS011;11627;51.322;22.816;2023-03-21T00:50:42;97.40;;;57.33;;
22922;SDS011;11627;51.322;22.816;2023-03-21T00:53:09;104.82;;;58.17;;
22922;SDS011;11627;51.322;22.816;2023-03-21T00:55:35;95.78;;;56.35;;
22922;SDS011;11627;51.322;22.816;2023-03-21T00:58:02;98.22;;;56.58;;
22922;SDS011;11627;51.322;22.816;2023-03-21T01:00:29;91.78;;;54.50;;
22922;SDS011;11627;51.322;22.816;2023-03-21T01:02:57;97.10;;;57.45;;
22922;SDS011;11627;51.322;22.816;2023-03-21T01:05:33;105.65;;;59.67;;
22922;SDS011;11627;51.322;22.816;2023-03-21T01:08:22;98.55;;;56.65;;
22922;SDS011;11627;51.322;22.816;2023-03-21T01:10:48;104.43;;;61.22;;
22922;SDS011;11627;51.322;22.816;2023-03-21T01:13:18;108.25;;;61.40;;
22922;SDS011;11627;51.322;22.816;2023-03-21T01:15:46;105.47;;;61.00;;
22922;SDS011;11627;51.322;22.816;2023-03-21T01:18:15;100.28;;;59.58;;
22922;SDS011;11627;51.322;22.816;2023-03-21T01:20:44;103.15;;;60.10;;
22922;SDS011;11627;51.322;22.816;2023-03-21T01:23:10;102.35;;;60.50;;
22922;SDS011;11627;51.322;22.816;2023-03-21T01:25:39;105.50;;;59.70;;
22922;SDS011;11627;51.322;22.816;2023-03-21T01:28:05;110.22;;;62.78;;
22922;SDS011;11627;51.322;22.816;2023-03-21T01:30:33;104.68;;;60.05;;
22922;SDS011;11627;51.322;22.816;2023-03-21T01:33:00;101.78;;;58.25;;
22922;SDS011;11627;51.322;22.816;2023-03-21T01:35:27;106.20;;;61.88;;
22922;SDS011;11627;51.322;22.816;2023-03-21T01:37:53;104.10;;;60.55;;
22922;SDS011;11627;51.322;22.816;2023-03-21T01:40:23;107.97;;;63.30;;
22922;SDS011;11627;51.322;22.816;2023-03-21T01:42:51;110.40;;;61.60;;
22922;SDS011;11627;51.322;22.816;2023-03-21T01:48:26;119.75;;;63.67;;
22922;SDS011;11627;51.322;22.816;2023-03-21T01:50:54;112.60;;;62.90;;
22922;SDS011;11627;51.322;22.816;2023-03-21T01:53:23;112.63;;;62.10;;
22922;SDS011;11627;51.322;22.816;2023-03-21T01:56:13;116.15;;;64.53;;
22922;SDS011;11627;51.322;22.816;2023-03-21T01:58:52;117.20;;;63.85;;
22922;SDS011;11627;51.322;22.816;2023-03-21T02:01:22;108.45;;;62.10;;
22922;SDS011;11627;51.322;22.816;2023-03-21T02:03:50;115.80;;;63.50;;
22922;SDS011;11627;51.322;22.816;2023-03-21T02:06:28;109.88;;;65.30;;
22922;SDS011;11627;51.322;22.816;2023-03-21T02:09:07;113.60;;;61.97;;
22922;SDS011;11627;51.322;22.816;2023-03-21T02:11:38;113.63;;;63.58;;
22922;SDS011;11627;51.322;22.816;2023-03-21T02:14:16;108.35;;;61.35;;
22922;SDS011;11627;51.322;22.816;2023-03-21T02:19:43;111.15;;;61.90;;
22922;SDS011;11627;51.322;22.816;2023-03-21T02:28:20;98.85;;;55.40;;
22922;SDS011;11627;51.322;22.816;2023-03-21T02:31:09;100.50;;;58.10;;
22922;SDS011;11627;51.322;22.816;2023-03-21T02:37:23;99.95;;;56.33;;
22922;SDS011;11627;51.322;22.816;2023-03-21T02:40:24;98.53;;;54.72;;
22922;SDS011;11627;51.322;22.816;2023-03-21T02:43:19;103.60;;;56.45;;
22922;SDS011;11627;51.322;22.816;2023-03-21T02:45:53;104.47;;;56.72;;
22922;SDS011;11627;51.322;22.816;2023-03-21T02:48:38;105.78;;;56.42;;
22922;SDS011;11627;51.322;22.816;2023-03-21T02:51:11;106.05;;;60.30;;
22922;SDS011;11627;51.322;22.816;2023-03-21T02:53:44;101.25;;;57.53;;
22922;SDS011;11627;51.322;22.816;2023-03-21T02:56:26;104.05;;;57.85;;
22922;SDS011;11627;51.322;22.816;2023-03-21T02:58:54;104.70;;;57.55;;
22922;SDS011;11627;51.322;22.816;2023-03-21T03:01:24;105.20;;;58.28;;
22922;SDS011;11627;51.322;22.816;2023-03-21T03:03:53;109.15;;;58.97;;
22922;SDS011;11627;51.322;22.816;2023-03-21T03:07:02;109.55;;;60.00;;
22922;SDS011;11627;51.322;22.816;2023-03-21T03:18:34;108.10;;;59.28;;
22922;SDS011;11627;51.322;22.816;2023-03-21T03:21:14;114.68;;;61.78;;
22922;SDS011;11627;51.322;22.816;2023-03-21T03:23:52;113.63;;;59.50;;
22922;SDS011;11627;51.322;22.816;2023-03-21T03:26:30;107.28;;;60.47;;
22922;SDS011;11627;51.322;22.816;2023-03-21T03:29:03;107.55;;;57.20;;
22922;SDS011;11627;51.322;22.816;2023-03-21T03:31:37;106.80;;;56.92;;
22922;SDS011;11627;51.322;22.816;2023-03-21T03:34:13;102.90;;;55.80;;
22922;SDS011;11627;51.322;22.816;2023-03-21T03:36:45;105.43;;;56.67;;
22922;SDS011;11627;51.322;22.816;2023-03-21T03:39:15;100.50;;;54.10;;
22922;SDS011;11627;51.322;22.816;2023-03-21T03:41:45;101.88;;;54.10;;
22922;SDS011;11627;51.322;22.816;2023-03-21T03:44:13;103.47;;;55.67;;
22922;SDS011;11627;51.322;22.816;2023-03-21T03:47:02;100.25;;;53.65;;
22922;SDS011;11627;51.322;22.816;2023-03-21T03:49:30;104.10;;;52.58;;
22922;SDS011;11627;51.322;22.816;2023-03-21T03:54:53;98.57;;;52.80;;
22922;SDS011;11627;51.322;22.816;2023-03-21T03:57:20;93.50;;;51.33;;
22922;SDS011;11627;51.322;22.816;2023-03-21T03:59:48;93.28;;;50.08;;
22922;SDS011;11627;51.322;22.816;2023-03-21T04:02:15;93.03;;;51.22;;
22922;SDS011;11627;51.322;22.816;2023-03-21T04:04:41;89.97;;;47.90;;
22922;SDS011;11627;51.322;22.816;2023-03-21T04:07:08;97.88;;;50.22;;
22922;SDS011;11627;51.322;22.816;2023-03-21T04:09:35;92.90;;;48.40;;
22922;SDS011;11627;51.322;22.816;2023-03-21T04:12:02;93.88;;;49.58;;
22922;SDS011;11627;51.322;22.816;2023-03-21T04:14:28;86.90;;;47.55;;
22922;SDS011;11627;51.322;22.816;2023-03-21T04:16:54;85.32;;;46.80;;
22922;SDS011;11627;51.322;22.816;2023-03-21T04:19:21;87.97;;;46.90;;
22922;SDS011;11627;51.322;22.816;2023-03-21T04:21:47;87.07;;;47.50;;
22922;SDS011;11627;51.322;22.816;2023-03-21T04:24:13;85.63;;;45.65;;
22922;SDS011;11627;51.322;22.816;2023-03-21T04:26:40;86.05;;;47.10;;
22922;SDS011;11627;51.322;22.816;2023-03-21T04:29:06;88.10;;;45.65;;
22922;SDS011;11627;51.322;22.816;2023-03-21T04:31:33;85.93;;;44.67;;
22922;SDS011;11627;51.322;22.816;2023-03-21T04:34:00;76.65;;;41.05;;
22922;SDS011;11627;51.322;22.816;2023-03-21T04:36:28;85.45;;;44.75;;
22922;SDS011;11627;51.322;22.816;2023-03-21T04:39:04;79.70;;;42.42;;
22922;SDS011;11627;51.322;22.816;2023-03-21T04:41:36;84.60;;;44.20;;
22922;SDS011;11627;51.322;22.816;2023-03-21T04:44:06;79.88;;;42.92;;
22922;SDS011;11627;51.322;22.816;2023-03-21T04:46:32;82.30;;;42.92;;
22922;SDS011;11627;51.322;22.816;2023-03-21T04:48:59;80.80;;;42.10;;
22922;SDS011;11627;51.322;22.816;2023-03-21T04:51:25;81.70;;;41.45;;
22922;SDS011;11627;51.322;22.816;2023-03-21T04:53:52;77.65;;;40.45;;
22922;SDS011;11627;51.322;22.816;2023-03-21T04:56:24;79.88;;;40.88;;
22922;SDS011;11627;51.322;22.816;2023-03-21T04:58:57;78.72;;;40.88;;
22922;SDS011;11627;51.322;22.816;2023-03-21T05:01:31;80.82;;;42.15;;
22922;SDS011;11627;51.322;22.816;2023-03-21T05:03:58;77.57;;;39.10;;
22922;SDS011;11627;51.322;22.816;2023-03-21T05:06:24;80.55;;;43.53;;
22922;SDS011;11627;51.322;22.816;2023-03-21T05:08:52;82.43;;;40.95;;
22922;SDS011;11627;51.322;22.816;2023-03-21T05:11:20;80.28;;;40.13;;
22922;SDS011;11627;51.322;22.816;2023-03-21T05:13:47;82.28;;;40.30;;
22922;SDS011;11627;51.322;22.816;2023-03-21T05:16:15;81.65;;;42.85;;
22922;SDS011;11627;51.322;22.816;2023-03-21T05:18:42;81.25;;;40.47;;
22922;SDS011;11627;51.322;22.816;2023-03-21T05:21:08;79.60;;;41.28;;
22922;SDS011;11627;51.322;22.816;2023-03-21T05:23:38;77.53;;;39.78;;
22922;SDS011;11627;51.322;22.816;2023-03-21T05:26:06;83.10;;;39.40;;
22922;SDS011;11627;51.322;22.816;2023-03-21T05:28:34;87.35;;;40.35;;
22922;SDS011;11627;51.322;22.816;2023-03-21T05:31:01;86.28;;;40.88;;
22922;SDS011;11627;51.322;22.816;2023-03-21T05:33:29;90.53;;;41.58;;
22922;SDS011;11627;51.322;22.816;2023-03-21T05:35:57;95.40;;;43.13;;
22922;SDS011;11627;51.322;22.816;2023-03-21T05:38:25;96.90;;;43.30;;
22922;SDS011;11627;51.322;22.816;2023-03-21T05:40:52;88.20;;;40.92;;
22922;SDS011;11627;51.322;22.816;2023-03-21T05:43:19;90.80;;;41.60;;
22922;SDS011;11627;51.322;22.816;2023-03-21T05:45:45;83.00;;;40.80;;
22922;SDS011;11627;51.322;22.816;2023-03-21T05:48:12;91.18;;;41.33;;
22922;SDS011;11627;51.322;22.816;2023-03-21T05:50:39;81.97;;;38.65;;
22922;SDS011;11627;51.322;22.816;2023-03-21T05:53:07;77.45;;;36.25;;
22922;SDS011;11627;51.322;22.816;2023-03-21T05:55:34;79.03;;;37.05;;
22922;SDS011;11627;51.322;22.816;2023-03-21T05:58:00;76.13;;;34.90;;
22922;SDS011;11627;51.322;22.816;2023-03-21T06:00:25;81.63;;;37.30;;
22922;SDS011;11627;51.322;22.816;2023-03-21T06:02:51;72.95;;;34.83;;
22922;SDS011;11627;51.322;22.816;2023-03-21T06:05:18;74.78;;;34.92;;
22922;SDS011;11627;51.322;22.816;2023-03-21T06:07:45;73.75;;;34.65;;
22922;SDS011;11627;51.322;22.816;2023-03-21T06:10:12;72.13;;;31.35;;
22922;SDS011;11627;51.322;22.816;2023-03-21T06:12:38;65.65;;;30.80;;
22922;SDS011;11627;51.322;22.816;2023-03-21T06:15:05;68.47;;;33.47;;
22922;SDS011;11627;51.322;22.816;2023-03-21T06:17:33;61.50;;;30.15;;
22922;SDS011;11627;51.322;22.816;2023-03-21T06:20:00;66.65;;;31.70;;
22922;SDS011;11627;51.322;22.816;2023-03-21T06:22:29;59.75;;;29.27;;
22922;SDS011;11627;51.322;22.816;2023-03-21T06:24:56;66.82;;;30.33;;
22922;SDS011;11627;51.322;22.816;2023-03-21T06:27:22;66.32;;;31.00;;
22922;SDS011;11627;51.322;22.816;2023-03-21T06:29:49;61.13;;;29.35;;
22922;SDS011;11627;51.322;22.816;2023-03-21T06:32:19;58.83;;;27.38;;
22922;SDS011;11627;51.322;22.816;2023-03-21T06:34:47;61.38;;;29.08;;
22922;SDS011;11627;51.322;22.816;2023-03-21T06:37:14;59.00;;;27.58;;
22922;SDS011;11627;51.322;22.816;2023-03-21T06:39:41;56.47;;;27.92;;
22922;SDS011;11627;51.322;22.816;2023-03-21T06:42:07;53.58;;;24.92;;
22922;SDS011;11627;51.322;22.816;2023-03-21T06:44:32;54.80;;;25.85;;
22922;SDS011;11627;51.322;22.816;2023-03-21T06:47:00;50.47;;;25.02;;
22922;SDS011;11627;51.322;22.816;2023-03-21T06:49:27;50.72;;;24.35;;
22922;SDS011;11627;51.322;22.816;2023-03-21T06:51:52;50.80;;;25.00;;
22922;SDS011;11627;51.322;22.816;2023-03-21T06:54:20;51.72;;;24.77;;
22922;SDS011;11627;51.322;22.816;2023-03-21T06:56:47;50.00;;;25.13;;
22922;SDS011;11627;51.322;22.816;2023-03-21T06:59:15;44.33;;;23.92;;
22922;SDS011;11627;51.322;22.816;2023-03-21T07:01:44;49.75;;;24.85;;
22922;SDS011;11627;51.322;22.816;2023-03-21T07:04:10;47.38;;;24.02;;
22922;SDS011;11627;51.322;22.816;2023-03-21T07:06:40;48.47;;;25.98;;
22922;SDS011;11627;51.322;22.816;2023-03-21T07:09:06;39.13;;;21.17;;
22922;SDS011;11627;51.322;22.816;2023-03-21T07:11:34;50.47;;;23.88;;
22922;SDS011;11627;51.322;22.816;2023-03-21T07:14:02;43.30;;;23.02;;
22922;SDS011;11627;51.322;22.816;2023-03-21T07:16:28;45.55;;;23.30;;
22922;SDS011;11627;51.322;22.816;2023-03-21T07:18:54;41.47;;;22.17;;
22922;SDS011;11627;51.322;22.816;2023-03-21T07:21:21;40.13;;;21.02;;
22922;SDS011;11627;51.322;22.816;2023-03-21T07:23:47;40.20;;;21.35;;
22922;SDS011;11627;51.322;22.816;2023-03-21T07:26:14;41.38;;;21.27;;
22922;SDS011;11627;51.322;22.816;2023-03-21T07:28:42;37.97;;;20.67;;
22922;SDS011;11627;51.322;22.816;2023-03-21T07:31:12;35.10;;;19.23;;
22922;SDS011;11627;51.322;22.816;2023-03-21T07:33:41;37.55;;;20.45;;
22922;SDS011;11627;51.322;22.816;2023-03-21T07:36:13;30.85;;;17.90;;
22922;SDS011;11627;51.322;22.816;2023-03-21T07:38:40;36.17;;;19.33;;
22922;SDS011;11627;51.322;22.816;2023-03-21T07:41:23;35.30;;;17.67;;
22922;SDS011;11627;51.322;22.816;2023-03-21T07:43:49;35.47;;;18.85;;
22922;SDS011;11627;51.322;22.816;2023-03-21T07:46:16;32.97;;;17.83;;
22922;SDS011;11627;51.322;22.816;2023-03-21T07:48:42;32.50;;;16.95;;
22922;SDS011;11627;51.322;22.816;2023-03-21T07:51:09;29.50;;;16.77;;
22922;SDS011;11627;51.322;22.816;2023-03-21T07:53:34;28.48;;;15.38;;
22922;SDS011;11627;51.322;22.816;2023-03-21T07:56:02;30.27;;;15.23;;
22922;SDS011;11627;51.322;22.816;2023-03-21T07:58:30;28.15;;;14.40;;
22922;SDS011;11627;51.322;22.816;2023-03-21T08:00:59;25.88;;;13.38;;
22922;SDS011;11627;51.322;22.816;2023-03-21T08:03:28;24.27;;;13.05;;
22922;SDS011;11627;51.322;22.816;2023-03-21T08:05:54;22.60;;;12.07;;
22922;SDS011;11627;51.322;22.816;2023-03-21T08:08:24;22.45;;;13.90;;
22922;SDS011;11627;51.322;22.816;2023-03-21T08:10:50;23.77;;;12.27;;
22922;SDS011;11627;51.322;22.816;2023-03-21T08:13:18;23.55;;;12.73;;
22922;SDS011;11627;51.322;22.816;2023-03-21T08:15:44;23.40;;;13.23;;
22922;SDS011;11627;51.322;22.816;2023-03-21T08:18:10;21.10;;;11.77;;
22922;SDS011;11627;51.322;22.816;2023-03-21T08:20:36;21.70;;;11.80;;
22922;SDS011;11627;51.322;22.816;2023-03-21T08:23:02;21.02;;;11.82;;
22922;SDS011;11627;51.322;22.816;2023-03-21T08:25:27;21.27;;;12.48;;
22922;SDS011;11627;51.322;22.816;2023-03-21T08:27:53;21.40;;;12.27;;
22922;SDS011;11627;51.322;22.816;2023-03-21T08:30:20;18.95;;;11.38;;
22922;SDS011;11627;51.322;22.816;2023-03-21T08:32:48;21.05;;;12.93;;
22922;SDS011;11627;51.322;22.816;2023-03-21T08:35:14;20.52;;;11.10;;
22922;SDS011;11627;51.322;22.816;2023-03-21T08:37:42;19.27;;;11.43;;
22922;SDS011;11627;51.322;22.816;2023-03-21T08:40:10;20.13;;;11.82;;
22922;SDS011;11627;51.322;22.816;2023-03-21T08:42:38;18.48;;;11.20;;
22922;SDS011;11627;51.322;22.816;2023-03-21T08:45:07;17.88;;;10.48;;
22922;SDS011;11627;51.322;22.816;2023-03-21T08:47:34;18.63;;;10.65;;
22922;SDS011;11627;51.322;22.816;2023-03-21T08:49:59;18.42;;;10.40;;
22922;SDS011;11627;51.322;22.816;2023-03-21T08:52:25;18.30;;;10.23;;
22922;SDS011;11627;51.322;22.816;2023-03-21T08:54:52;15.98;;;10.10;;
22922;SDS011;11627;51.322;22.816;2023-03-21T08:57:19;16.90;;;10.02;;
22922;SDS011;11627;51.322;22.816;2023-03-21T08:59:45;19.27;;;10.32;;
22922;SDS011;11627;51.322;22.816;2023-03-21T09:02:12;17.83;;;10.25;;
22922;SDS011;11627;51.322;22.816;2023-03-21T09:04:39;17.70;;;10.05;;
22922;SDS011;11627;51.322;22.816;2023-03-21T09:07:05;18.92;;;9.95;;
22922;SDS011;11627;51.322;22.816;2023-03-21T09:09:33;16.30;;;9.13;;
22922;SDS011;11627;51.322;22.816;2023-03-21T09:12:00;19.05;;;9.13;;
22922;SDS011;11627;51.322;22.816;2023-03-21T09:14:26;14.20;;;9.43;;
22922;SDS011;11627;51.322;22.816;2023-03-21T09:16:52;17.13;;;9.95;;
22922;SDS011;11627;51.322;22.816;2023-03-21T09:19:18;14.02;;;8.30;;
22922;SDS011;11627;51.322;22.816;2023-03-21T09:21:44;15.52;;;8.93;;
22922;SDS011;11627;51.322;22.816;2023-03-21T09:24:10;15.88;;;9.43;;
22922;SDS011;11627;51.322;22.816;2023-03-21T09:26:37;15.32;;;9.07;;
22922;SDS011;11627;51.322;22.816;2023-03-21T09:29:05;15.88;;;9.35;;
22922;SDS011;11627;51.322;22.816;2023-03-21T09:31:31;19.55;;;9.50;;
22922;SDS011;11627;51.322;22.816;2023-03-21T09:33:59;13.95;;;8.18;;
22922;SDS011;11627;51.322;22.816;2023-03-21T09:36:25;15.57;;;8.50;;
22922;SDS011;11627;51.322;22.816;2023-03-21T09:38:52;16.85;;;9.50;;
22922;SDS011;11627;51.322;22.816;2023-03-21T09:49:29;15.80;;;9.30;;
22922;SDS011;11627;51.322;22.816;2023-03-21T09:51:59;15.75;;;9.02;;
22922;SDS011;11627;51.322;22.816;2023-03-21T09:54:34;15.73;;;8.57;;
22922;SDS011;11627;51.322;22.816;2023-03-21T09:59:44;29.48;;;13.82;;
22922;SDS011;11627;51.322;22.816;2023-03-21T10:02:19;19.80;;;10.90;;
22922;SDS011;11627;51.322;22.816;2023-03-21T10:05:11;16.48;;;9.95;;
22922;SDS011;11627;51.322;22.816;2023-03-21T10:07:43;23.90;;;12.40;;
22922;SDS011;11627;51.322;22.816;2023-03-21T10:10:14;25.17;;;12.88;;
22922;SDS011;11627;51.322;22.816;2023-03-21T10:12:43;22.85;;;12.80;;
22922;SDS011;11627;51.322;22.816;2023-03-21T10:15:14;23.08;;;13.02;;
22922;SDS011;11627;51.322;22.816;2023-03-21T10:17:42;22.52;;;12.35;;
22922;SDS011;11627;51.322;22.816;2023-03-21T10:20:15;22.13;;;11.75;;
22922;SDS011;11627;51.322;22.816;2023-03-21T10:22:45;21.63;;;12.63;;
22922;SDS011;11627;51.322;22.816;2023-03-21T10:25:16;21.05;;;12.88;;
22922;SDS011;11627;51.322;22.816;2023-03-21T10:27:52;19.83;;;12.25;;
22922;SDS011;11627;51.322;22.816;2023-03-21T10:33:03;18.10;;;10.55;;
22922;SDS011;11627;51.322;22.816;2023-03-21T10:35:33;19.50;;;11.10;;
22922;SDS011;11627;51.322;22.816;2023-03-21T10:38:01;22.75;;;12.18;;
22922;SDS011;11627;51.322;22.816;2023-03-21T10:40:29;22.17;;;13.02;;
22922;SDS011;11627;51.322;22.816;2023-03-21T10:42:55;24.10;;;14.30;;
22922;SDS011;11627;51.322;22.816;2023-03-21T10:45:39;28.17;;;16.05;;
22922;SDS011;11627;51.322;22.816;2023-03-21T10:48:06;29.75;;;16.88;;
22922;SDS011;11627;51.322;22.816;2023-03-21T10:50:33;30.27;;;17.05;;
22922;SDS011;11627;51.322;22.816;2023-03-21T10:53:00;31.10;;;17.67;;
22922;SDS011;11627;51.322;22.816;2023-03-21T10:57:56;29.60;;;16.65;;
22922;SDS011;11627;51.322;22.816;2023-03-21T11:00:33;30.83;;;17.27;;
22922;SDS011;11627;51.322;22.816;2023-03-21T11:03:05;30.23;;;17.00;;
22922;SDS011;11627;51.322;22.816;2023-03-21T11:05:45;33.15;;;16.50;;
22922;SDS011;11627;51.322;22.816;2023-03-21T11:08:13;28.23;;;16.15;;
22922;SDS011;11627;51.322;22.816;2023-03-21T11:13:17;24.88;;;14.43;;
22922;SDS011;11627;51.322;22.816;2023-03-21T11:15:50;27.25;;;14.40;;
22922;SDS011;11627;51.322;22.816;2023-03-21T11:18:29;26.08;;;14.50;;
22922;SDS011;11627;51.322;22.816;2023-03-21T11:21:05;22.92;;;13.88;;
22922;SDS011;11627;51.322;22.816;2023-03-21T11:23:34;27.63;;;14.63;;
22922;SDS011;11627;51.322;22.816;2023-03-21T11:26:05;26.88;;;14.43;;
22922;SDS011;11627;51.322;22.816;2023-03-21T11:28:36;24.55;;;14.35;;
22922;SDS011;11627;51.322;22.816;2023-03-21T11:31:06;20.88;;;11.93;;
22922;SDS011;11627;51.322;22.816;2023-03-21T11:33:42;20.35;;;12.20;;
22922;SDS011;11627;51.322;22.816;2023-03-21T11:38:43;25.45;;;13.52;;
22922;SDS011;11627;51.322;22.816;2023-03-21T11:41:24;24.00;;;14.05;;
22922;SDS011;11627;51.322;22.816;2023-03-21T11:43:53;24.50;;;14.65;;
22922;SDS011;11627;51.322;22.816;2023-03-21T11:46:23;21.15;;;12.80;;
22922;SDS011;11627;51.322;22.816;2023-03-21T11:48:50;21.63;;;11.77;;
22922;SDS011;11627;51.322;22.816;2023-03-21T11:56:43;22.85;;;13.88;;
22922;SDS011;11627;51.322;22.816;2023-03-21T12:12:32;29.42;;;18.42;;
22922;SDS011;11627;51.322;22.816;2023-03-21T12:18:14;35.92;;;19.67;;
22922;SDS011;11627;51.322;22.816;2023-03-21T12:21:08;30.52;;;16.65;;
22922;SDS011;11627;51.322;22.816;2023-03-21T12:32:04;40.38;;;20.08;;
22922;SDS011;11627;51.322;22.816;2023-03-21T12:34:51;54.33;;;23.25;;
22922;SDS011;11627;51.322;22.816;2023-03-21T12:43:29;31.85;;;16.20;;
22922;SDS011;11627;51.322;22.816;2023-03-21T12:51:35;23.45;;;13.38;;
22922;SDS011;11627;51.322;22.816;2023-03-21T12:54:22;37.50;;;20.77;;
22922;SDS011;11627;51.322;22.816;2023-03-21T12:57:12;17.73;;;11.45;;
22922;SDS011;11627;51.322;22.816;2023-03-21T12:59:54;20.33;;;11.23;;
22922;SDS011;11627;51.322;22.816;2023-03-21T13:08:03;20.30;;;11.10;;
22922;SDS011;11627;51.322;22.816;2023-03-21T13:10:44;26.35;;;13.93;;
22922;SDS011;11627;51.322;22.816;2023-03-21T13:13:33;18.65;;;9.98;;
22922;SDS011;11627;51.322;22.816;2023-03-21T13:24:03;19.98;;;10.45;;
22922;SDS011;11627;51.322;22.816;2023-03-21T13:26:43;15.32;;;9.43;;
22922;SDS011;11627;51.322;22.816;2023-03-21T13:29:24;18.02;;;9.73;;
22922;SDS011;11627;51.322;22.816;2023-03-21T13:31:50;28.65;;;14.15;;
22922;SDS011;11627;51.322;22.816;2023-03-21T13:34:19;14.30;;;9.27;;
22922;SDS011;11627;51.322;22.816;2023-03-21T13:36:49;15.02;;;9.77;;
22922;SDS011;11627;51.322;22.816;2023-03-21T13:39:23;31.85;;;14.98;;
22922;SDS011;11627;51.322;22.816;2023-03-21T13:41:51;25.55;;;14.25;;
22922;SDS011;11627;51.322;22.816;2023-03-21T13:44:22;17.17;;;10.60;;
22922;SDS011;11627;51.322;22.816;2023-03-21T13:55:27;17.00;;;9.48;;
22922;SDS011;11627;51.322;22.816;2023-03-21T14:03:55;16.80;;;10.25;;
22922;SDS011;11627;51.322;22.816;2023-03-21T14:06:23;17.70;;;11.00;;
22922;SDS011;11627;51.322;22.816;2023-03-21T14:09:05;18.05;;;10.57;;
22922;SDS011;11627;51.322;22.816;2023-03-21T14:11:31;19.05;;;11.38;;
22922;SDS011;11627;51.322;22.816;2023-03-21T14:13:59;17.50;;;10.90;;
22922;SDS011;11627;51.322;22.816;2023-03-21T14:16:26;19.38;;;11.52;;
22922;SDS011;11627;51.322;22.816;2023-03-21T14:18:55;19.58;;;11.48;;
22922;SDS011;11627;51.322;22.816;2023-03-21T14:21:25;19.08;;;11.40;;
22922;SDS011;11627;51.322;22.816;2023-03-21T14:26:28;17.63;;;11.30;;
22922;SDS011;11627;51.322;22.816;2023-03-21T14:28:56;20.85;;;12.07;;
22922;SDS011;11627;51.322;22.816;2023-03-21T14:31:22;18.98;;;11.35;;
22922;SDS011;11627;51.322;22.816;2023-03-21T14:33:52;18.35;;;11.55;;
22922;SDS011;11627;51.322;22.816;2023-03-21T14:36:26;18.75;;;12.00;;
22922;SDS011;11627;51.322;22.816;2023-03-21T14:39:11;18.00;;;11.35;;
22922;SDS011;11627;51.322;22.816;2023-03-21T14:41:45;15.52;;;10.02;;
22922;SDS011;11627;51.322;22.816;2023-03-21T14:44:15;18.13;;;10.55;;
22922;SDS011;11627;51.322;22.816;2023-03-21T14:51:52;16.83;;;10.30;;
22922;SDS011;11627;51.322;22.816;2023-03-21T14:54:21;18.92;;;10.80;;
22922;SDS011;11627;51.322;22.816;2023-03-21T14:56:50;20.75;;;11.40;;
22922;SDS011;11627;51.322;22.816;2023-03-21T14:59:18;20.02;;;11.60;;
22922;SDS011;11627;51.322;22.816;2023-03-21T15:01:47;33.20;;;16.40;;
22922;SDS011;11627;51.322;22.816;2023-03-21T15:04:15;82.53;;;37.58;;
22922;SDS011;11627;51.322;22.816;2023-03-21T15:06:48;49.95;;;22.67;;
22922;SDS011;11627;51.322;22.816;2023-03-21T15:09:20;22.90;;;13.20;;
22922;SDS011;11627;51.322;22.816;2023-03-21T15:11:48;21.42;;;12.70;;
22922;SDS011;11627;51.322;22.816;2023-03-21T15:14:17;32.03;;;15.63;;
22922;SDS011;11627;51.322;22.816;2023-03-21T15:16:47;20.95;;;11.93;;
22922;SDS011;11627;51.322;22.816;2023-03-21T15:19:14;21.10;;;11.32;;
22922;SDS011;11627;51.322;22.816;2023-03-21T15:21:46;18.60;;;11.80;;
22922;SDS011;11627;51.322;22.816;2023-03-21T15:24:17;20.23;;;11.40;;
22922;SDS011;11627;51.322;22.816;2023-03-21T15:26:49;17.30;;;10.73;;
22922;SDS011;11627;51.322;22.816;2023-03-21T15:29:23;23.35;;;12.35;;
22922;SDS011;11627;51.322;22.816;2023-03-21T15:31:51;20.52;;;11.45;;
22922;SDS011;11627;51.322;22.816;2023-03-21T15:34:22;13.85;;;8.27;;
22922;SDS011;11627;51.322;22.816;2023-03-21T15:36:59;14.02;;;8.18;;
22922;SDS011;11627;51.322;22.816;2023-03-21T15:39:30;13.35;;;7.90;;
22922;SDS011;11627;51.322;22.816;2023-03-21T15:42:02;10.98;;;7.32;;
22922;SDS011;11627;51.322;22.816;2023-03-21T15:44:30;14.63;;;8.23;;
22922;SDS011;11627;51.322;22.816;2023-03-21T15:46:57;16.30;;;9.10;;
22922;SDS011;11627;51.322;22.816;2023-03-21T15:51:55;16.00;;;8.90;;
22922;SDS011;11627;51.322;22.816;2023-03-21T15:54:28;15.25;;;8.95;;
22922;SDS011;11627;51.322;22.816;2023-03-21T15:57:16;17.48;;;9.93;;
22922;SDS011;11627;51.322;22.816;2023-03-21T15:59:49;16.58;;;9.73;;
22922;SDS011;11627;51.322;22.816;2023-03-21T16:02:20;16.85;;;9.18;;
22922;SDS011;11627;51.322;22.816;2023-03-21T16:05:02;28.25;;;11.77;;
22922;SDS011;11627;51.322;22.816;2023-03-21T16:07:44;14.43;;;8.57;;
22922;SDS011;11627;51.322;22.816;2023-03-21T16:10:22;13.98;;;8.60;;
22922;SDS011;11627;51.322;22.816;2023-03-21T16:12:52;15.50;;;9.18;;
22922;SDS011;11627;51.322;22.816;2023-03-21T16:15:18;15.32;;;8.75;;
22922;SDS011;11627;51.322;22.816;2023-03-21T16:17:47;16.40;;;8.50;;
22922;SDS011;11627;51.322;22.816;2023-03-21T16:20:21;14.27;;;8.50;;
22922;SDS011;11627;51.322;22.816;2023-03-21T16:22:57;14.10;;;8.38;;
22922;SDS011;11627;51.322;22.816;2023-03-21T16:25:23;14.23;;;8.40;;
22922;SDS011;11627;51.322;22.816;2023-03-21T16:27:49;13.27;;;8.07;;
22922;SDS011;11627;51.322;22.816;2023-03-21T16:30:17;19.38;;;10.93;;
22922;SDS011;11627;51.322;22.816;2023-03-21T16:32:44;16.95;;;9.10;;
22922;SDS011;11627;51.322;22.816;2023-03-21T16:35:10;33.03;;;13.70;;
22922;SDS011;11627;51.322;22.816;2023-03-21T16:37:36;44.30;;;15.02;;